Search for airport 
image banner adimage banner adimage banner ad
image banner ad

KCCY - Northeast Iowa Rgnl

Located in Charles City, United States

ICAO - CCY, IATA - CCY

Data provided by Airmate  

General information

Coordinates: N43°4'21" W92°36'39"
Elevation is 1125 feet MSL.
Magnetic variation is -00° East
View others Airports in Iowa

Operational data

Special qualification required
Current time UTC:
Current local time:
Weather
METAR: KCCY 150935Z AUTO 36005KT 10SM CLR 15/08 A3011 RMK AO2
View NOTAMs / SUP AIP / TFR affecting this airport [VIEW]
Communications frequencies: [VIEW]

Runways:

RWY identifierQFULength (ft)Width (ft)SurfaceLDA (ft)
0445°2536160GRASS
22225°2536160GRASS
12125°400075CONC
30305°400075CONC
18180°1780170GRASS
361780170GRASS

Airport contact information

Address: Charles City United States

Other aviation service providers

Flight schools

Charles City Aeronautics, Inc.

Charles City Aeronautics, Inc.
bill@northiowaair.com+1(641)228-3553

Satellite view of KCCY